PWSweather.com
Personal Weather Stations
Station Observations
CW4114
Near Downtown, Rogers City, MI 49779

Near DowntownRogers City, MI 49779

Lat: 45.417443, Lon: -83.810642

Elevation: 605

Station Type: Davis Vantage Pro2 w/Solar

Latest ConditionsUpdated 9:11:01 AM EST Sunday, Jan 25, 2015
Currently Today's Max Today's Min Today's Average
Temperature 12.4°F-10.9°C 18.7°F-7.4°C 11.8°F-11.2°C 14.4°F-9.8°C
Dew Point 7.7°F-13.5°C 13.5°F-10.3°C 7.2°F-13.8°C 9.2°F-12.7°C
Winds 8.1 mph NE13.0 kmh NE 10.1 mph NE16.3 kmh NE - 5.2 mph 8.4 kmh
Wind Gusts 15.0 mph24.1 kmh 17.9 mph28.8 kmh - -
Humidity 81% 85% 76% 80%
Pressure 30.04 in1017.3 mb 30.04 in1017.3 mb 29.78 in1008.5 mb -
Hour Temp Dew Point Humidity Winds Wind Gusts Pressure Precip Precip Rate Daily Precip Total
09:11 AM 12.4°F-10.9°C 7.7°F-13.5°C 81% 8.1 mph NE13.0 kmh NE 15.0 mph24.1 kmh 30.04 in1017.3 mb 0.00 in0.0 mm 0.00 in/hr0.0 mm/hr 0.00 in0.0 mm
09:06 AM 12.4°F-10.9°C 7.9°F-13.4°C 82% 8.9 mph E14.3 kmh E 15.0 mph24.1 kmh 30.04 in1017.3 mb 0.00 in0.0 mm 0.00 in/hr0.0 mm/hr 0.00 in0.0 mm
09:01 AM 12.4°F-10.9°C 7.9°F-13.4°C 82% 8.9 mph E14.3 kmh E 14.1 mph22.7 kmh 30.04 in1017.3 mb 0.00 in0.0 mm 0.00 in/hr0.0 mm/hr 0.00 in0.0 mm
08:56 AM 12.4°F-10.9°C 7.9°F-13.4°C 82% 8.9 mph NE14.3 kmh NE 16.1 mph25.9 kmh 30.04 in1017.3 mb 0.00 in0.0 mm 0.00 in/hr0.0 mm/hr 0.00 in0.0 mm
08:51 AM 12.4°F-10.9°C 7.9°F-13.4°C 82% 8.1 mph ENE13.0 kmh ENE 15.0 mph24.1 kmh 30.04 in1017.3 mb 0.00 in0.0 mm 0.00 in/hr0.0 mm/hr 0.00 in0.0 mm
08:46 AM 12.2°F-11.0°C 7.7°F-13.5°C 82% 10.1 mph NE16.3 kmh NE 14.1 mph22.7 kmh 30.04 in1017.3 mb 0.00 in0.0 mm 0.00 in/hr0.0 mm/hr 0.00 in0.0 mm
08:41 AM 12.4°F-10.9°C 8.2°F-13.2°C 83% 8.9 mph NE14.3 kmh NE 15.0 mph24.1 kmh 30.03 in1016.9 mb 0.00 in0.0 mm 0.00 in/hr0.0 mm/hr 0.00 in0.0 mm
08:36 AM 12.2°F-11.0°C 8.6°F-13.0°C 85% 6.9 mph ENE11.1 kmh ENE 15.0 mph24.1 kmh 30.03 in1016.9 mb 0.00 in0.0 mm 0.00 in/hr0.0 mm/hr 0.00 in0.0 mm
08:31 AM 12.0°F-11.1°C 8.4°F-13.1°C 85% 8.1 mph NE13.0 kmh NE 14.1 mph22.7 kmh 30.03 in1016.9 mb 0.00 in0.0 mm 0.00 in/hr0.0 mm/hr 0.00 in0.0 mm
08:26 AM 12.0°F-11.1°C 7.9°F-13.4°C 83% 8.9 mph N14.3 kmh N 14.1 mph22.7 kmh 30.03 in1016.9 mb 0.00 in0.0 mm 0.00 in/hr0.0 mm/hr 0.00 in0.0 mm
08:21 AM 12.0°F-11.1°C 8.1°F-13.3°C 84% 8.1 mph ENE13.0 kmh ENE 17.0 mph27.4 kmh 30.03 in1016.9 mb 0.00 in0.0 mm 0.00 in/hr0.0 mm/hr 0.00 in0.0 mm
08:16 AM 11.8°F-11.2°C 7.7°F-13.5°C 83% 8.1 mph ENE13.0 kmh ENE 14.1 mph22.7 kmh 30.02 in1016.6 mb 0.00 in0.0 mm 0.00 in/hr0.0 mm/hr 0.00 in0.0 mm
08:11 AM 11.8°F-11.2°C 7.7°F-13.5°C 83% 8.1 mph E13.0 kmh E 15.0 mph24.1 kmh 30.02 in1016.6 mb 0.00 in0.0 mm 0.00 in/hr0.0 mm/hr 0.00 in0.0 mm
08:06 AM 11.8°F-11.2°C 7.3°F-13.7°C 82% 6.9 mph NE11.1 kmh NE 13.0 mph20.9 kmh 30.02 in1016.6 mb 0.00 in0.0 mm 0.00 in/hr0.0 mm/hr 0.00 in0.0 mm
08:01 AM 11.8°F-11.2°C 7.3°F-13.7°C 82% 6.0 mph E9.7 kmh E 14.1 mph22.7 kmh 30.02 in1016.6 mb 0.00 in0.0 mm 0.00 in/hr0.0 mm/hr 0.00 in0.0 mm
07:56 AM 11.8°F-11.2°C 7.9°F-13.4°C 84% 6.0 mph E9.7 kmh E 14.1 mph22.7 kmh 30.01 in1016.3 mb 0.00 in0.0 mm 0.00 in/hr0.0 mm/hr 0.00 in0.0 mm
07:51 AM 11.8°F-11.2°C 7.3°F-13.7°C 82% 8.1 mph ENE13.0 kmh ENE 15.0 mph24.1 kmh 30.01 in1016.3 mb 0.00 in0.0 mm 0.00 in/hr0.0 mm/hr 0.00 in0.0 mm
07:46 AM 12.0°F-11.1°C 7.5°F-13.6°C 82% 8.1 mph NE13.0 kmh NE 17.9 mph28.8 kmh 30.01 in1016.3 mb 0.00 in0.0 mm 0.00 in/hr0.0 mm/hr 0.00 in0.0 mm
07:41 AM 12.0°F-11.1°C 7.5°F-13.6°C 82% 6.9 mph NNE11.1 kmh NNE 16.1 mph25.9 kmh 30.01 in1016.3 mb 0.00 in0.0 mm 0.00 in/hr0.0 mm/hr 0.00 in0.0 mm
07:36 AM 12.0°F-11.1°C 7.5°F-13.6°C 82% 4.9 mph ENE7.9 kmh ENE 16.1 mph25.9 kmh 30.01 in1016.3 mb 0.00 in0.0 mm 0.00 in/hr0.0 mm/hr 0.00 in0.0 mm
07:31 AM 12.0°F-11.1°C 8.1°F-13.3°C 84% 6.0 mph ESE9.7 kmh ESE 14.1 mph22.7 kmh 30.01 in1016.3 mb 0.00 in0.0 mm 0.00 in/hr0.0 mm/hr 0.00 in0.0 mm
07:26 AM 12.2°F-11.0°C 8.1°F-13.3°C 83% 4.9 mph NE7.9 kmh NE 15.0 mph24.1 kmh 30.01 in1016.3 mb 0.00 in0.0 mm 0.00 in/hr0.0 mm/hr 0.00 in0.0 mm
07:21 AM 12.2°F-11.0°C 8.1°F-13.3°C 83% 4.9 mph NE7.9 kmh NE 13.0 mph20.9 kmh 30.01 in1016.3 mb 0.00 in0.0 mm 0.00 in/hr0.0 mm/hr 0.00 in0.0 mm
07:16 AM 12.0°F-11.1°C 7.3°F-13.7°C 81% 6.0 mph NE9.7 kmh NE 12.1 mph19.5 kmh 30.00 in1015.9 mb 0.00 in0.0 mm 0.00 in/hr0.0 mm/hr 0.00 in0.0 mm
07:11 AM 12.2°F-11.0°C 7.7°F-13.5°C 82% 6.0 mph ENE9.7 kmh ENE 13.0 mph20.9 kmh 30.00 in1015.9 mb 0.00 in0.0 mm 0.00 in/hr0.0 mm/hr 0.00 in0.0 mm
07:06 AM 12.4°F-10.9°C 7.9°F-13.4°C 82% 4.9 mph NNE7.9 kmh NNE 14.1 mph22.7 kmh 29.99 in1015.6 mb 0.00 in0.0 mm 0.00 in/hr0.0 mm/hr 0.00 in0.0 mm
07:01 AM 12.4°F-10.9°C 7.7°F-13.5°C 81% 4.9 mph N7.9 kmh N 12.1 mph19.5 kmh 29.99 in1015.6 mb 0.00 in0.0 mm 0.00 in/hr0.0 mm/hr 0.00 in0.0 mm
06:56 AM 12.4°F-10.9°C 7.7°F-13.5°C 81% 6.0 mph NNE9.7 kmh NNE 11.0 mph17.7 kmh 29.99 in1015.6 mb 0.00 in0.0 mm 0.00 in/hr0.0 mm/hr 0.00 in0.0 mm
06:51 AM 12.4°F-10.9°C 7.2°F-13.8°C 79% 6.0 mph N9.7 kmh N 14.1 mph22.7 kmh 29.99 in1015.6 mb 0.00 in0.0 mm 0.00 in/hr0.0 mm/hr 0.00 in0.0 mm
06:46 AM 12.6°F-10.8°C 7.5°F-13.6°C 80% 6.0 mph NE9.7 kmh NE 14.1 mph22.7 kmh 29.99 in1015.6 mb 0.00 in0.0 mm 0.00 in/hr0.0 mm/hr 0.00 in0.0 mm
06:41 AM 12.7°F-10.7°C 7.5°F-13.6°C 79% 4.9 mph NE7.9 kmh NE 14.1 mph22.7 kmh 29.98 in1015.2 mb 0.00 in0.0 mm 0.00 in/hr0.0 mm/hr 0.00 in0.0 mm
06:36 AM 12.7°F-10.7°C 7.5°F-13.6°C 79% 4.9 mph NNE7.9 kmh NNE 15.0 mph24.1 kmh 29.98 in1015.2 mb 0.00 in0.0 mm 0.00 in/hr0.0 mm/hr 0.00 in0.0 mm
06:31 AM 12.7°F-10.7°C 7.7°F-13.5°C 80% 4.9 mph NE7.9 kmh NE 15.0 mph24.1 kmh 29.98 in1015.2 mb 0.00 in0.0 mm 0.00 in/hr0.0 mm/hr 0.00 in0.0 mm
06:26 AM 12.7°F-10.7°C 7.5°F-13.6°C 79% 6.0 mph N9.7 kmh N 13.0 mph20.9 kmh 29.98 in1015.2 mb 0.00 in0.0 mm 0.00 in/hr0.0 mm/hr 0.00 in0.0 mm
06:21 AM 12.9°F-10.6°C 7.3°F-13.7°C 78% 4.9 mph NE7.9 kmh NE 15.0 mph24.1 kmh 29.98 in1015.2 mb 0.00 in0.0 mm 0.00 in/hr0.0 mm/hr 0.00 in0.0 mm
06:16 AM 12.9°F-10.6°C 7.9°F-13.4°C 80% 4.9 mph NNE7.9 kmh NNE 12.1 mph19.5 kmh 29.98 in1015.2 mb 0.00 in0.0 mm 0.00 in/hr0.0 mm/hr 0.00 in0.0 mm
06:11 AM 12.9°F-10.6°C 7.7°F-13.5°C 79% 4.9 mph NE7.9 kmh NE 12.1 mph19.5 kmh 29.98 in1015.2 mb 0.00 in0.0 mm 0.00 in/hr0.0 mm/hr 0.00 in0.0 mm
06:06 AM 12.9°F-10.6°C 7.7°F-13.5°C 79% 4.9 mph N7.9 kmh N 13.0 mph20.9 kmh 29.97 in1014.9 mb 0.00 in0.0 mm 0.00 in/hr0.0 mm/hr 0.00 in0.0 mm
06:01 AM 12.9°F-10.6°C 7.2°F-13.8°C 77% 4.9 mph E7.9 kmh E 12.1 mph19.5 kmh 29.96 in1014.6 mb 0.00 in0.0 mm 0.00 in/hr0.0 mm/hr 0.00 in0.0 mm
05:56 AM 12.9°F-10.6°C 7.7°F-13.5°C 79% 4.9 mph N7.9 kmh N 15.0 mph24.1 kmh 29.96 in1014.6 mb 0.00 in0.0 mm 0.00 in/hr0.0 mm/hr 0.00 in0.0 mm
05:51 AM 12.9°F-10.6°C 7.9°F-13.4°C 80% 4.9 mph N7.9 kmh N 11.0 mph17.7 kmh 29.96 in1014.6 mb 0.00 in0.0 mm 0.00 in/hr0.0 mm/hr 0.00 in0.0 mm
05:46 AM 13.1°F-10.5°C 7.9°F-13.4°C 79% 6.0 mph NE9.7 kmh NE 11.0 mph17.7 kmh 29.96 in1014.6 mb 0.00 in0.0 mm 0.00 in/hr0.0 mm/hr 0.00 in0.0 mm
05:41 AM 13.1°F-10.5°C 8.1°F-13.3°C 80% 6.0 mph NE9.7 kmh NE 15.0 mph24.1 kmh 29.96 in1014.6 mb 0.00 in0.0 mm 0.00 in/hr0.0 mm/hr 0.00 in0.0 mm
05:36 AM 13.3°F-10.4°C 8.1°F-13.3°C 79% 4.9 mph N7.9 kmh N 15.0 mph24.1 kmh 29.96 in1014.6 mb 0.00 in0.0 mm 0.00 in/hr0.0 mm/hr 0.00 in0.0 mm
05:31 AM 13.3°F-10.4°C 8.6°F-13.0°C 81% 4.9 mph ENE7.9 kmh ENE 13.0 mph20.9 kmh 29.96 in1014.6 mb 0.00 in0.0 mm 0.00 in/hr0.0 mm/hr 0.00 in0.0 mm
05:26 AM 13.1°F-10.5°C 7.9°F-13.4°C 79% 6.0 mph N9.7 kmh N 15.0 mph24.1 kmh 29.95 in1014.2 mb 0.00 in0.0 mm 0.00 in/hr0.0 mm/hr 0.00 in0.0 mm
05:21 AM 13.3°F-10.4°C 8.1°F-13.3°C 79% 6.0 mph NE9.7 kmh NE 12.1 mph19.5 kmh 29.95 in1014.2 mb 0.00 in0.0 mm 0.00 in/hr0.0 mm/hr 0.00 in0.0 mm
05:16 AM 13.3°F-10.4°C 7.7°F-13.5°C 78% 6.0 mph N9.7 kmh N 14.1 mph22.7 kmh 29.94 in1013.9 mb 0.00 in0.0 mm 0.00 in/hr0.0 mm/hr 0.00 in0.0 mm
05:11 AM 13.3°F-10.4°C 8.1°F-13.3°C 79% 4.9 mph N7.9 kmh N 13.0 mph20.9 kmh 29.94 in1013.9 mb 0.00 in0.0 mm 0.00 in/hr0.0 mm/hr 0.00 in0.0 mm
05:06 AM 13.3°F-10.4°C 7.7°F-13.5°C 78% 4.9 mph NE7.9 kmh NE 12.1 mph19.5 kmh 29.94 in1013.9 mb 0.00 in0.0 mm 0.00 in/hr0.0 mm/hr 0.00 in0.0 mm
05:01 AM 13.3°F-10.4°C 7.7°F-13.5°C 78% 6.0 mph ENE9.7 kmh ENE 13.0 mph20.9 kmh 29.93 in1013.5 mb 0.00 in0.0 mm 0.00 in/hr0.0 mm/hr 0.00 in0.0 mm
04:56 AM 13.5°F-10.3°C 8.2°F-13.2°C 79% 6.0 mph N9.7 kmh N 12.1 mph19.5 kmh 29.93 in1013.5 mb 0.00 in0.0 mm 0.00 in/hr0.0 mm/hr 0.00 in0.0 mm
04:51 AM 13.5°F-10.3°C 8.2°F-13.2°C 79% 6.0 mph ENE9.7 kmh ENE 14.1 mph22.7 kmh 29.93 in1013.5 mb 0.00 in0.0 mm 0.00 in/hr0.0 mm/hr 0.00 in0.0 mm
04:46 AM 13.5°F-10.3°C 8.2°F-13.2°C 79% 4.9 mph NE7.9 kmh NE 14.1 mph22.7 kmh 29.93 in1013.5 mb 0.00 in0.0 mm 0.00 in/hr0.0 mm/hr 0.00 in0.0 mm
04:41 AM 13.5°F-10.3°C 8.2°F-13.2°C 79% 6.0 mph NE9.7 kmh NE 14.1 mph22.7 kmh 29.92 in1013.2 mb 0.00 in0.0 mm 0.00 in/hr0.0 mm/hr 0.00 in0.0 mm
04:36 AM 13.6°F-10.2°C 8.1°F-13.3°C 78% 6.9 mph N11.1 kmh N 14.1 mph22.7 kmh 29.92 in1013.2 mb 0.00 in0.0 mm 0.00 in/hr0.0 mm/hr 0.00 in0.0 mm
04:31 AM 13.6°F-10.2°C 7.7°F-13.5°C 77% 4.9 mph NNE7.9 kmh NNE 13.0 mph20.9 kmh 29.92 in1013.2 mb 0.00 in0.0 mm 0.00 in/hr0.0 mm/hr 0.00 in0.0 mm
04:26 AM 13.6°F-10.2°C 8.1°F-13.3°C 78% 4.9 mph NE7.9 kmh NE 13.0 mph20.9 kmh 29.92 in1013.2 mb 0.00 in0.0 mm 0.00 in/hr0.0 mm/hr 0.00 in0.0 mm
04:21 AM 13.6°F-10.2°C 7.7°F-13.5°C 77% 4.9 mph NNE7.9 kmh NNE 14.1 mph22.7 kmh 29.92 in1013.2 mb 0.00 in0.0 mm 0.00 in/hr0.0 mm/hr 0.00 in0.0 mm
04:16 AM 13.6°F-10.2°C 8.1°F-13.3°C 78% 4.9 mph NE7.9 kmh NE 12.1 mph19.5 kmh 29.92 in1013.2 mb 0.00 in0.0 mm 0.00 in/hr0.0 mm/hr 0.00 in0.0 mm
04:11 AM 13.8°F-10.1°C 8.2°F-13.2°C 78% 4.9 mph NE7.9 kmh NE 12.1 mph19.5 kmh 29.91 in1012.9 mb 0.00 in0.0 mm 0.00 in/hr0.0 mm/hr 0.00 in0.0 mm
04:06 AM 13.8°F-10.1°C 8.6°F-13.0°C 79% 4.9 mph NNE7.9 kmh NNE 12.1 mph19.5 kmh 29.91 in1012.9 mb 0.00 in0.0 mm 0.00 in/hr0.0 mm/hr 0.00 in0.0 mm
04:01 AM 14.0°F-10.0°C 8.8°F-12.9°C 79% 4.9 mph NNW7.9 kmh NNW 11.0 mph17.7 kmh 29.91 in1012.9 mb 0.00 in0.0 mm 0.00 in/hr0.0 mm/hr 0.00 in0.0 mm
03:56 AM 14.2°F-9.9°C 8.6°F-13.0°C 78% 4.9 mph N7.9 kmh N 12.1 mph19.5 kmh 29.91 in1012.9 mb 0.00 in0.0 mm 0.00 in/hr0.0 mm/hr 0.00 in0.0 mm
03:51 AM 14.4°F-9.8°C 9.3°F-12.6°C 80% 4.0 mph NNW6.4 kmh NNW 11.0 mph17.7 kmh 29.90 in1012.5 mb 0.00 in0.0 mm 0.00 in/hr0.0 mm/hr 0.00 in0.0 mm
03:46 AM 14.5°F-9.7°C 9.1°F-12.7°C 79% 4.0 mph NNW6.4 kmh NNW 8.9 mph14.3 kmh 29.90 in1012.5 mb 0.00 in0.0 mm 0.00 in/hr0.0 mm/hr 0.00 in0.0 mm
03:41 AM 14.7°F-9.6°C 9.7°F-12.4°C 80% 4.0 mph N6.4 kmh N 13.0 mph20.9 kmh 29.90 in1012.5 mb 0.00 in0.0 mm 0.00 in/hr0.0 mm/hr 0.00 in0.0 mm
03:36 AM 14.9°F-9.5°C 9.5°F-12.5°C 79% 4.0 mph NE6.4 kmh NE 12.1 mph19.5 kmh 29.90 in1012.5 mb 0.00 in0.0 mm 0.00 in/hr0.0 mm/hr 0.00 in0.0 mm
03:31 AM 15.1°F-9.4°C 9.5°F-12.5°C 78% 4.0 mph NNE6.4 kmh NNE 8.9 mph14.3 kmh 29.90 in1012.5 mb 0.00 in0.0 mm 0.00 in/hr0.0 mm/hr 0.00 in0.0 mm
03:26 AM 15.3°F-9.3°C 9.7°F-12.4°C 78% 4.0 mph NW6.4 kmh NW 10.1 mph16.3 kmh 29.89 in1012.2 mb 0.00 in0.0 mm 0.00 in/hr0.0 mm/hr 0.00 in0.0 mm
03:21 AM 15.4°F-9.2°C 9.9°F-12.3°C 78% 2.9 mph NNE4.7 kmh NNE 10.1 mph16.3 kmh 29.89 in1012.2 mb 0.00 in0.0 mm 0.00 in/hr0.0 mm/hr 0.00 in0.0 mm
03:16 AM 15.4°F-9.2°C 9.9°F-12.3°C 78% 4.0 mph NNE6.4 kmh NNE 6.9 mph11.1 kmh 29.89 in1012.2 mb 0.00 in0.0 mm 0.00 in/hr0.0 mm/hr 0.00 in0.0 mm
03:11 AM 15.6°F-9.1°C 10.0°F-12.2°C 78% 4.0 mph N6.4 kmh N 10.1 mph16.3 kmh 29.89 in1012.2 mb 0.00 in0.0 mm 0.00 in/hr0.0 mm/hr 0.00 in0.0 mm
03:06 AM 15.6°F-9.1°C 10.0°F-12.2°C 78% 4.0 mph N6.4 kmh N 12.0 mph19.3 kmh 29.89 in1012.2 mb 0.00 in0.0 mm 0.00 in/hr0.0 mm/hr 0.00 in0.0 mm
03:01 AM 15.8°F-9.0°C 9.9°F-12.3°C 77% 4.9 mph NNE7.9 kmh NNE 11.0 mph17.7 kmh 29.88 in1011.9 mb 0.00 in0.0 mm 0.00 in/hr0.0 mm/hr 0.00 in0.0 mm
02:55 AM 15.8°F-9.0°C 10.2°F-12.1°C 78% 4.9 mph NE7.9 kmh NE 13.0 mph20.9 kmh 29.88 in1011.9 mb 0.00 in0.0 mm 0.00 in/hr0.0 mm/hr 0.00 in0.0 mm
02:50 AM 16.0°F-8.9°C 10.4°F-12.0°C 78% 4.9 mph N7.9 kmh N 11.0 mph17.7 kmh 29.88 in1011.9 mb 0.00 in0.0 mm 0.00 in/hr0.0 mm/hr 0.00 in0.0 mm
02:45 AM 16.0°F-8.9°C 10.4°F-12.0°C 78% 4.9 mph N7.9 kmh N 14.1 mph22.7 kmh 29.87 in1011.5 mb 0.00 in0.0 mm 0.00 in/hr0.0 mm/hr 0.00 in0.0 mm
02:40 AM 15.8°F-9.0°C 10.2°F-12.1°C 78% 4.0 mph N6.4 kmh N 8.9 mph14.3 kmh 29.87 in1011.5 mb 0.00 in0.0 mm 0.00 in/hr0.0 mm/hr 0.00 in0.0 mm
02:35 AM 15.8°F-9.0°C 10.4°F-12.0°C 79% 4.0 mph NE6.4 kmh NE 13.0 mph20.9 kmh 29.87 in1011.5 mb 0.00 in0.0 mm 0.00 in/hr0.0 mm/hr 0.00 in0.0 mm
02:30 AM 15.6°F-9.1°C 9.7°F-12.4°C 77% 4.0 mph N6.4 kmh N 8.9 mph14.3 kmh 29.86 in1011.2 mb 0.00 in0.0 mm 0.00 in/hr0.0 mm/hr 0.00 in0.0 mm
02:25 AM 15.6°F-9.1°C 9.5°F-12.5°C 76% 4.0 mph NNE6.4 kmh NNE 8.1 mph13.0 kmh 29.86 in1011.2 mb 0.00 in0.0 mm 0.00 in/hr0.0 mm/hr 0.00 in0.0 mm
02:20 AM 15.6°F-9.1°C 9.5°F-12.5°C 76% 2.9 mph N4.7 kmh N 10.1 mph16.3 kmh 29.86 in1011.2 mb 0.00 in0.0 mm 0.00 in/hr0.0 mm/hr 0.00 in0.0 mm
02:15 AM 15.6°F-9.1°C 9.5°F-12.5°C 76% 2.9 mph NE4.7 kmh NE 6.9 mph11.1 kmh 29.86 in1011.2 mb 0.00 in0.0 mm 0.00 in/hr0.0 mm/hr 0.00 in0.0 mm
02:10 AM 15.6°F-9.1°C 10.0°F-12.2°C 78% 2.9 mph NNW4.7 kmh NNW 9.0 mph14.5 kmh 29.85 in1010.8 mb 0.00 in0.0 mm 0.00 in/hr0.0 mm/hr 0.00 in0.0 mm
02:05 AM 15.8°F-9.0°C 9.9°F-12.3°C 77% 2.9 mph N4.7 kmh N 6.9 mph11.1 kmh 29.85 in1010.8 mb 0.00 in0.0 mm 0.00 in/hr0.0 mm/hr 0.00 in0.0 mm
02:00 AM 16.0°F-8.9°C 10.0°F-12.2°C 77% 2.9 mph N4.7 kmh N 10.0 mph16.1 kmh 29.85 in1010.8 mb 0.00 in0.0 mm 0.00 in/hr0.0 mm/hr 0.00 in0.0 mm
01:55 AM 16.2°F-8.8°C 10.6°F-11.9°C 78% 2.9 mph N4.7 kmh N 8.1 mph13.0 kmh 29.84 in1010.5 mb 0.00 in0.0 mm 0.00 in/hr0.0 mm/hr 0.00 in0.0 mm
01:50 AM 16.2°F-8.8°C 10.6°F-11.9°C 78% 4.0 mph N6.4 kmh N 8.9 mph14.3 kmh 29.84 in1010.5 mb 0.00 in0.0 mm 0.00 in/hr0.0 mm/hr 0.00 in0.0 mm
01:45 AM 16.3°F-8.7°C 10.9°F-11.7°C 79% 2.9 mph NNW4.7 kmh NNW 10.0 mph16.1 kmh 29.83 in1010.2 mb 0.00 in0.0 mm 0.00 in/hr0.0 mm/hr 0.00 in0.0 mm
01:40 AM 16.3°F-8.7°C 10.9°F-11.7°C 79% 2.9 mph NNE4.7 kmh NNE 6.9 mph11.1 kmh 29.83 in1010.2 mb 0.00 in0.0 mm 0.00 in/hr0.0 mm/hr 0.00 in0.0 mm
01:35 AM 16.5°F-8.6°C 10.9°F-11.7°C 78% 2.9 mph N4.7 kmh N 10.1 mph16.3 kmh 29.83 in1010.2 mb 0.00 in0.0 mm 0.00 in/hr0.0 mm/hr 0.00 in0.0 mm
01:30 AM 16.5°F-8.6°C 10.9°F-11.7°C 78% 2.9 mph NNW4.7 kmh NNW 8.1 mph13.0 kmh 29.82 in1009.8 mb 0.00 in0.0 mm 0.00 in/hr0.0 mm/hr 0.00 in0.0 mm
01:25 AM 16.7°F-8.5°C 11.1°F-11.6°C 78% 4.0 mph NW6.4 kmh NW 8.9 mph14.3 kmh 29.82 in1009.8 mb 0.00 in0.0 mm 0.00 in/hr0.0 mm/hr 0.00 in0.0 mm
01:20 AM 16.9°F-8.4°C 11.3°F-11.5°C 78% 4.9 mph N7.9 kmh N 8.9 mph14.3 kmh 29.81 in1009.5 mb 0.00 in0.0 mm 0.00 in/hr0.0 mm/hr 0.00 in0.0 mm
01:15 AM 17.2°F-8.2°C 11.5°F-11.4°C 78% 4.0 mph NNE6.4 kmh NNE 11.0 mph17.7 kmh 29.81 in1009.5 mb 0.00 in0.0 mm 0.00 in/hr0.0 mm/hr 0.00 in0.0 mm
01:10 AM 17.2°F-8.2°C 11.5°F-11.4°C 78% 4.0 mph NE6.4 kmh NE 8.9 mph14.3 kmh 29.80 in1009.1 mb 0.00 in0.0 mm 0.00 in/hr0.0 mm/hr 0.00 in0.0 mm
01:05 AM 17.6°F-8.0°C 11.8°F-11.2°C 78% 4.9 mph N7.9 kmh N 10.1 mph16.3 kmh 29.80 in1009.1 mb 0.00 in0.0 mm 0.00 in/hr0.0 mm/hr 0.00 in0.0 mm
01:00 AM 18.0°F-7.8°C 12.2°F-11.0°C 78% 4.9 mph NNW7.9 kmh NNW 11.0 mph17.7 kmh 29.80 in1009.1 mb 0.00 in0.0 mm 0.00 in/hr0.0 mm/hr 0.00 in0.0 mm
12:55 AM 18.1°F-7.7°C 13.1°F-10.5°C 80% 2.9 mph NE4.7 kmh NE 12.1 mph19.5 kmh 29.80 in1009.1 mb 0.00 in0.0 mm 0.00 in/hr0.0 mm/hr 0.00 in0.0 mm
12:50 AM 18.3°F-7.6°C 13.5°F-10.3°C 81% 2.9 mph NW4.7 kmh NW 10.1 mph16.3 kmh 29.80 in1009.1 mb 0.00 in0.0 mm 0.00 in/hr0.0 mm/hr 0.00 in0.0 mm
12:45 AM 18.1°F-7.7°C 13.1°F-10.5°C 80% 4.0 mph N6.4 kmh N 6.9 mph11.1 kmh 29.79 in1008.8 mb 0.00 in0.0 mm 0.00 in/hr0.0 mm/hr 0.00 in0.0 mm
12:40 AM 18.3°F-7.6°C 13.3°F-10.4°C 80% 4.0 mph NE6.4 kmh NE 13.0 mph20.9 kmh 29.79 in1008.8 mb 0.00 in0.0 mm 0.00 in/hr0.0 mm/hr 0.00 in0.0 mm
12:35 AM 18.3°F-7.6°C 13.3°F-10.4°C 80% 2.9 mph NNE4.7 kmh NNE 11.0 mph17.7 kmh 29.79 in1008.8 mb 0.00 in0.0 mm 0.00 in/hr0.0 mm/hr 0.00 in0.0 mm
12:30 AM 18.3°F-7.6°C 13.3°F-10.4°C 80% 2.9 mph N4.7 kmh N 10.1 mph16.3 kmh 29.79 in1008.8 mb 0.00 in0.0 mm 0.00 in/hr0.0 mm/hr 0.00 in0.0 mm
12:25 AM 18.3°F-7.6°C 13.3°F-10.4°C 80% 4.0 mph N6.4 kmh N 11.0 mph17.7 kmh 29.79 in1008.8 mb 0.00 in0.0 mm 0.00 in/hr0.0 mm/hr 0.00 in0.0 mm
12:20 AM 18.3°F-7.6°C 13.3°F-10.4°C 80% 4.0 mph NE6.4 kmh NE 8.9 mph14.3 kmh 29.78 in1008.5 mb 0.00 in0.0 mm 0.00 in/hr0.0 mm/hr 0.00 in0.0 mm
12:15 AM 18.3°F-7.6°C 13.3°F-10.4°C 80% 4.0 mph N6.4 kmh N 10.1 mph16.3 kmh 29.78 in1008.5 mb 0.00 in0.0 mm 0.00 in/hr0.0 mm/hr 0.00 in0.0 mm
12:10 AM 18.3°F-7.6°C 12.9°F-10.6°C 79% 4.9 mph N7.9 kmh N 8.9 mph14.3 kmh 29.78 in1008.5 mb 0.00 in0.0 mm 0.00 in/hr0.0 mm/hr 0.00 in0.0 mm
12:05 AM 18.5°F-7.5°C 12.7°F-10.7°C 78% 4.9 mph NE7.9 kmh NE 10.1 mph16.3 kmh 29.78 in1008.5 mb 0.00 in0.0 mm 0.00 in/hr0.0 mm/hr 0.00 in0.0 mm
12:00 AM 18.7°F-7.4°C 13.3°F-10.4°C 79% 4.0 mph NE6.4 kmh NE 10.1 mph16.3 kmh 29.78 in1008.5 mb 0.00 in0.0 mm 0.00 in/hr0.0 mm/hr 0.00 in0.0 mm